Time;durP1;ratioP1;P1;durP2;ratioP2;P2;SDS_P1;SDS_P2;PMS_P1;PMS_P2;Temp;Humidity;BMP_temperature;BMP_pressure;BME280_temperature;BME280_humidity;BME280_pressure;Samples;Min_cycle;Max_cycle;Signal;HPM_P1;HPM_P2
2021/01/23 11:00:12;;;;;;;4.87;2.67;;;6.90;99.90;;;;;;10178713;23;82969;-71
2021/01/23 11:05:14;;;;;;;4.23;2.60;;;7.60;99.70;;;;;;10155137;28;82683;-72
2021/01/23 11:10:16;;;;;;;4.77;2.30;;;7.80;99.20;;;;;;10152119;28;82839;-71
2021/01/23 11:15:19;;;;;;;7.80;2.83;;;7.80;98.40;;;;;;10154942;28;82862;-71
2021/01/23 11:20:20;;;;;;;3.30;2.20;;;7.80;98.10;;;;;;10156909;28;82576;-71
2021/01/23 11:25:27;;;;;;;3.20;2.10;;;8.00;97.90;;;;;;10152731;28;82596;-73
2021/01/23 11:30:39;;;;;;;3.30;2.20;;;8.60;97.90;;;;;;10102728;28;83136;-72
2021/01/23 11:35:40;;;;;;;4.13;2.40;;;10.10;97.10;;;;;;10087490;28;83585;-71
2021/01/23 11:40:43;;;;;;;5.10;2.33;;;10.80;95.50;;;;;;10092707;28;83300;-72
2021/01/23 11:45:49;;;;;;;3.40;2.15;;;11.00;94.10;;;;;;10084863;28;85019;-73
2021/01/23 11:50:50;;;;;;;3.83;2.25;;;10.90;93.30;;;;;;10091164;28;84928;-73
2021/01/23 11:55:52;;;;;;;2.85;2.20;;;11.00;93.00;;;;;;10094839;28;85777;-74
2021/01/23 12:00:55;;;;;;;3.10;2.28;;;11.40;92.10;;;;;;10095820;28;83868;-73
2021/01/23 12:05:57;;;;;;;4.30;2.50;;;12.30;91.70;;;;;;10094262;28;84956;-73
2021/01/23 12:10:59;;;;;;;3.63;2.15;;;12.60;90.70;;;;;;10091564;28;83841;-73
2021/01/23 12:16:04;;;;;;;4.65;2.70;;;12.70;87.30;;;;;;10091817;28;85499;-73
2021/01/23 12:21:06;;;;;;;4.43;2.40;;;13.40;86.30;;;;;;10094771;28;83282;-73
2021/01/23 12:26:07;;;;;;;2.88;2.00;;;13.20;82.40;;;;;;10093332;28;83907;-73
2021/01/23 12:31:10;;;;;;;3.15;2.00;;;13.00;81.60;;;;;;10094482;28;83138;-71
2021/01/23 12:36:12;;;;;;;2.92;1.90;;;15.20;80.90;;;;;;10075298;28;86547;-71
2021/01/23 12:41:13;;;;;;;3.20;2.10;;;16.30;75.20;;;;;;10092973;28;83591;-72
2021/01/23 12:46:16;;;;;;;3.70;1.55;;;17.80;70.20;;;;;;10091866;28;83823;-71
2021/01/23 12:51:17;;;;;;;3.58;2.00;;;19.50;66.00;;;;;;10086938;28;85009;-71
2021/01/23 12:56:19;;;;;;;5.13;2.30;;;17.30;61.10;;;;;;10091259;28;83980;-71
2021/01/23 13:01:21;;;;;;;4.20;2.60;;;14.80;60.40;;;;;;10093620;28;84774;-71
2021/01/23 13:06:23;;;;;;;4.28;2.45;;;12.90;62.80;;;;;;10100653;28;83631;-71
2021/01/23 13:11:27;;;;;;;5.53;2.70;;;11.70;65.80;;;;;;10098333;28;84361;-71
2021/01/23 13:16:31;;;;;;;3.47;2.40;;;10.70;67.60;;;;;;10098987;28;84878;-74
2021/01/23 13:21:33;;;;;;;4.80;2.67;;;9.90;70.00;;;;;;10099821;28;83897;-74
2021/01/23 13:26:35;;;;;;;5.20;3.10;;;9.00;72.00;;;;;;10095333;28;85740;-72
2021/01/23 13:31:37;;;;;;;5.47;2.60;;;8.50;74.20;;;;;;10099175;28;84579;-73
2021/01/23 13:36:39;;;;;;;4.57;2.40;;;8.10;76.00;;;;;;10069052;28;85483;-73
2021/01/23 13:41:41;;;;;;;4.93;2.50;;;7.70;77.30;;;;;;10093817;28;83710;-73
2021/01/23 13:46:44;;;;;;;4.93;2.70;;;7.40;78.80;;;;;;10096089;28;83695;-72
2021/01/23 13:51:47;;;;;;;5.57;2.50;;;7.00;80.50;;;;;;10099095;28;82217;-71
2021/01/23 13:56:49;;;;;;;4.83;3.00;;;6.80;81.50;;;;;;10096542;28;83937;-72
2021/01/23 14:01:51;;;;;;;5.50;2.60;;;6.50;83.00;;;;;;10092432;28;84403;-71
2021/01/23 14:06:53;;;;;;;5.00;2.63;;;6.30;84.20;;;;;;10092944;28;84005;-71
2021/01/23 14:11:54;;;;;;;5.47;2.70;;;6.20;85.10;;;;;;10098113;28;84440;-72
2021/01/23 14:16:57;;;;;;;5.90;3.07;;;6.10;86.40;;;;;;10094822;28;83741;-71
2021/01/23 14:21:58;;;;;;;5.27;2.90;;;6.00;87.20;;;;;;10095700;28;85106;-71
2021/01/23 14:27:00;;;;;;;9.43;3.10;;;6.00;88.30;;;;;;10094279;28;83906;-72
2021/01/23 14:32:03;;;;;;;7.07;3.40;;;5.90;89.70;;;;;;10086999;28;85458;-71
2021/01/23 14:37:05;;;;;;;5.67;3.17;;;5.90;90.80;;;;;;10093601;28;83926;-70
2021/01/23 14:42:06;;;;;;;5.10;3.57;;;5.80;91.30;;;;;;10091017;28;85162;-72
2021/01/23 14:47:09;;;;;;;5.63;2.80;;;5.70;91.50;;;;;;10088242;28;84194;-71
2021/01/23 14:52:11;;;;;;;5.17;2.67;;;5.70;91.80;;;;;;10105815;28;83117;-71
2021/01/23 14:57:13;;;;;;;6.00;3.00;;;5.70;92.00;;;;;;10111196;28;84040;-70
2021/01/23 15:02:16;;;;;;;6.80;3.40;;;5.70;92.30;;;;;;10089824;28;84022;-71
2021/01/23 15:07:18;;;;;;;6.87;3.37;;;5.70;92.40;;;;;;10093465;28;84885;-71
2021/01/23 15:12:20;;;;;;;5.00;2.77;;;5.80;92.60;;;;;;10090104;28;83030;-71
2021/01/23 15:17:23;;;;;;;4.30;2.63;;;5.80;92.70;;;;;;10095728;28;84811;-71
2021/01/23 15:22:25;;;;;;;17.70;3.30;;;5.70;93.00;;;;;;10093178;28;84251;-70
2021/01/23 15:27:27;;;;;;;5.50;3.03;;;5.60;93.20;;;;;;10093763;28;83775;-70
2021/01/23 15:32:29;;;;;;;9.07;3.47;;;5.60;93.80;;;;;;10093444;28;84951;-71
2021/01/23 15:37:33;;;;;;;7.20;3.60;;;5.50;93.70;;;;;;10085170;28;84432;-70
2021/01/23 15:42:35;;;;;;;8.73;4.33;;;5.30;94.00;;;;;;10091771;28;83249;-71
2021/01/23 15:47:37;;;;;;;7.03;3.40;;;5.20;94.20;;;;;;10088771;28;83809;-70
2021/01/23 15:52:39;;;;;;;7.93;4.20;;;5.10;94.40;;;;;;10090626;28;83962;-70
2021/01/23 15:57:41;;;;;;;9.10;3.90;;;5.10;94.60;;;;;;10110769;28;84869;-70
2021/01/23 16:02:45;;;;;;;8.97;4.17;;;5.00;94.80;;;;;;10088907;28;84073;-73
2021/01/23 16:07:46;;;;;;;8.50;3.73;;;4.90;95.40;;;;;;10092375;28;85046;-71
2021/01/23 16:12:48;;;;;;;8.60;3.50;;;4.80;95.60;;;;;;10086984;28;83729;-72
2021/01/23 16:17:53;;;;;;;8.37;3.77;;;4.80;95.60;;;;;;10087702;28;84627;-71
2021/01/23 16:22:55;;;;;;;11.90;4.80;;;4.70;95.80;;;;;;10082659;28;84677;-71
2021/01/23 16:27:57;;;;;;;7.63;3.60;;;4.50;95.90;;;;;;10079633;28;84053;-72
2021/01/23 16:33:00;;;;;;;7.40;3.57;;;4.30;96.30;;;;;;10087316;28;83149;-71
2021/01/23 16:38:02;;;;;;;9.33;4.90;;;4.40;96.40;;;;;;10091308;28;83864;-72
2021/01/23 16:43:04;;;;;;;10.67;4.30;;;4.30;96.60;;;;;;10104559;28;84887;-71
2021/01/23 16:48:08;;;;;;;9.03;4.63;;;4.30;96.70;;;;;;10095106;28;84984;-73
2021/01/23 16:53:11;;;;;;;9.90;4.53;;;4.30;96.80;;;;;;10089732;28;84025;-71
2021/01/23 16:58:15;;;;;;;10.00;4.40;;;4.20;97.10;;;;;;10084018;28;85549;-71
2021/01/23 17:03:20;;;;;;;9.50;4.70;;;4.20;97.20;;;;;;10075191;28;83826;-70
2021/01/23 17:08:22;;;;;;;7.30;4.27;;;4.10;97.60;;;;;;10072153;28;84744;-72
2021/01/23 17:13:24;;;;;;;6.73;3.40;;;4.20;97.50;;;;;;10289633;23;84929;-70
2021/01/23 17:18:26;;;;;;;7.37;3.83;;;4.20;97.50;;;;;;10099520;28;87538;-71
2021/01/23 17:23:28;;;;;;;13.60;4.97;;;4.20;97.50;;;;;;10095402;28;84257;-71
2021/01/23 17:28:32;;;;;;;10.50;4.17;;;4.30;97.50;;;;;;10110124;28;84407;-72
2021/01/23 17:33:34;;;;;;;10.57;5.00;;;4.10;97.50;;;;;;10111101;28;83945;-71
2021/01/23 17:38:36;;;;;;;14.00;4.77;;;4.00;98.00;;;;;;10106575;28;84770;-74
2021/01/23 17:43:38;;;;;;;7.07;3.93;;;3.90;98.20;;;;;;10113511;28;83693;-74
2021/01/23 17:48:40;;;;;;;9.07;4.00;;;3.70;98.60;;;;;;10109141;28;84290;-73
2021/01/23 17:53:42;;;;;;;6.53;3.40;;;3.60;99.10;;;;;;10091763;28;83570;-73
2021/01/23 17:58:44;;;;;;;5.37;3.17;;;3.50;99.40;;;;;;10106588;28;84684;-73
2021/01/23 18:04:04;;;;;;;6.40;3.13;;;3.40;99.70;;;;;;10085687;28;84143;-73
2021/01/23 18:09:07;;;;;;;8.73;4.33;;;3.30;99.90;;;;;;10236429;23;84066;-72
2021/01/23 18:14:08;;;;;;;10.20;4.47;;;3.30;99.90;;;;;;10096442;28;84131;-73
2021/01/23 18:19:11;;;;;;;12.60;4.43;;;3.20;99.90;;;;;;10103308;28;83753;-72
2021/01/23 18:24:12;;;;;;;9.70;4.60;;;3.20;99.90;;;;;;10138003;28;83249;-73
2021/01/23 18:29:14;;;;;;;12.07;5.07;;;3.20;99.90;;;;;;10139857;28;83314;-73
2021/01/23 18:34:17;;;;;;;10.53;4.47;;;3.10;99.90;;;;;;10148121;28;82728;-73
2021/01/23 18:39:19;;;;;;;6.43;3.90;;;3.20;99.90;;;;;;10149372;28;82470;-72
2021/01/23 18:44:20;;;;;;;12.57;4.13;;;3.10;99.90;;;;;;10157560;28;82516;-74
2021/01/23 18:49:23;;;;;;;7.13;3.57;;;3.10;99.90;;;;;;10156886;28;82463;-74
2021/01/23 18:54:25;;;;;;;6.60;3.40;;;3.20;99.90;;;;;;10156790;28;82669;-73
2021/01/23 18:59:27;;;;;;;8.53;4.13;;;3.20;99.90;;;;;;10133050;28;85267;-72
2021/01/23 19:04:30;;;;;;;6.53;3.30;;;3.10;99.90;;;;;;10157682;28;84002;-72
2021/01/23 19:09:32;;;;;;;6.13;3.10;;;3.00;99.90;;;;;;10154871;28;82691;-74
2021/01/23 19:14:34;;;;;;;9.03;3.20;;;2.90;99.90;;;;;;10155206;28;82791;-74
2021/01/23 19:19:37;;;;;;;5.03;2.90;;;2.80;99.90;;;;;;10145238;28;84972;-73
2021/01/23 19:24:38;;;;;;;7.33;3.07;;;2.70;99.90;;;;;;10140807;28;83497;-73
2021/01/23 19:29:40;;;;;;;15.60;3.43;;;2.60;99.90;;;;;;10138159;28;82596;-74
2021/01/23 19:34:43;;;;;;;7.17;3.93;;;2.50;99.90;;;;;;10147196;28;83744;-74
2021/01/23 19:39:45;;;;;;;6.87;2.80;;;2.50;99.90;;;;;;10130207;28;83262;-74
2021/01/23 19:44:47;;;;;;;7.00;3.30;;;2.40;99.90;;;;;;10124236;28;83498;-74
2021/01/23 19:49:51;;;;;;;6.67;3.50;;;2.50;99.90;;;;;;10129091;28;82592;-75
2021/01/23 19:54:55;;;;;;;9.80;3.90;;;2.50;99.90;;;;;;10139115;28;81817;-74
2021/01/23 19:59:57;;;;;;;10.90;3.53;;;2.50;99.90;;;;;;10135726;28;82834;-74
2021/01/23 20:05:00;;;;;;;8.30;3.83;;;2.60;99.90;;;;;;10140656;28;82085;-73
2021/01/23 20:10:01;;;;;;;6.47;3.50;;;2.60;99.90;;;;;;10139544;28;85266;-74
2021/01/23 20:15:04;;;;;;;8.57;4.03;;;2.60;99.90;;;;;;10146393;28;83051;-73
2021/01/23 20:20:08;;;;;;;7.80;4.00;;;2.70;99.90;;;;;;10133741;28;82642;-73
2021/01/23 20:25:13;;;;;;;8.83;3.80;;;2.80;99.90;;;;;;10130030;28;83905;-73
2021/01/23 20:30:17;;;;;;;6.07;3.30;;;2.80;99.90;;;;;;10143081;28;82772;-73
2021/01/23 20:35:19;;;;;;;4.03;2.80;;;2.90;99.90;;;;;;10147483;28;84479;-73
2021/01/23 20:40:21;;;;;;;7.80;3.50;;;3.00;99.90;;;;;;10158220;28;81967;-73
2021/01/23 20:45:23;;;;;;;6.10;3.50;;;3.00;99.90;;;;;;10166705;28;82095;-73
2021/01/23 20:50:26;;;;;;;9.00;3.33;;;3.00;99.90;;;;;;10155526;28;83634;-73
2021/01/23 20:55:28;;;;;;;14.07;5.37;;;3.00;99.90;;;;;;10154433;28;83901;-73
2021/01/23 21:00:29;;;;;;;9.90;3.77;;;2.90;99.90;;;;;;10141411;28;83467;-73
2021/01/23 21:05:33;;;;;;;10.17;4.57;;;2.90;99.90;;;;;;10139644;28;82692;-73
2021/01/23 21:10:35;;;;;;;6.50;3.63;;;2.90;99.90;;;;;;10153080;28;81765;-73
2021/01/23 21:15:38;;;;;;;7.77;3.63;;;3.00;99.90;;;;;;10152855;28;82545;-73
2021/01/23 21:20:42;;;;;;;9.33;4.37;;;3.10;99.90;;;;;;10146104;28;82607;-73
2021/01/23 21:25:43;;;;;;;9.57;3.90;;;3.10;99.90;;;;;;10140233;28;82308;-73
2021/01/23 21:30:45;;;;;;;7.33;4.37;;;3.10;99.90;;;;;;10143702;28;82857;-73
2021/01/23 21:35:47;;;;;;;10.43;4.70;;;3.20;99.90;;;;;;10149170;28;83447;-74
2021/01/23 21:40:49;;;;;;;10.40;4.47;;;3.20;99.90;;;;;;10147022;28;83004;-73
2021/01/23 21:45:53;;;;;;;12.23;5.07;;;3.20;99.90;;;;;;10138944;28;84478;-73
2021/01/23 21:50:56;;;;;;;13.67;5.70;;;3.20;99.90;;;;;;10150033;28;84038;-73
2021/01/23 21:55:57;;;;;;;12.83;5.60;;;3.30;99.90;;;;;;10170098;28;82544;-73
2021/01/23 22:00:59;;;;;;;11.10;4.83;;;3.30;99.90;;;;;;10158274;28;83257;-73
2021/01/23 22:06:02;;;;;;;10.23;5.03;;;3.30;99.90;;;;;;10151314;28;82787;-73
2021/01/23 22:11:04;;;;;;;10.77;4.80;;;3.30;99.90;;;;;;10166509;28;82582;-73
2021/01/23 22:16:07;;;;;;;8.33;4.20;;;3.40;99.90;;;;;;10154414;28;84325;-73
2021/01/23 22:21:10;;;;;;;6.73;3.63;;;3.40;99.90;;;;;;10158990;28;82732;-73
2021/01/23 22:26:12;;;;;;;5.90;3.40;;;3.50;99.90;;;;;;10153732;28;82346;-74
2021/01/23 22:31:14;;;;;;;4.93;2.90;;;3.60;99.90;;;;;;10152292;28;82839;-73
2021/01/23 22:36:16;;;;;;;7.40;2.60;;;3.60;99.90;;;;;;10150992;28;82644;-73
2021/01/23 22:41:18;;;;;;;4.83;2.40;;;3.70;99.90;;;;;;10145914;28;83601;-73
2021/01/23 22:46:19;;;;;;;5.63;2.67;;;3.80;99.90;;;;;;10144282;28;82615;-73
2021/01/23 22:51:22;;;;;;;4.87;2.30;;;3.90;99.90;;;;;;10160676;28;81814;-73
2021/01/23 22:56:23;;;;;;;3.13;2.17;;;3.90;99.90;;;;;;10136481;28;83520;-73
2021/01/23 23:01:30;;;;;;;3.87;2.20;;;3.90;99.90;;;;;;10143790;28;83477;-74
2021/01/23 23:06:32;;;;;;;3.57;1.97;;;3.90;99.90;;;;;;10144927;28;82659;-73
2021/01/23 23:11:34;;;;;;;4.27;2.30;;;3.90;99.90;;;;;;10143687;28;83395;-74
2021/01/23 23:16:38;;;;;;;3.97;2.30;;;3.90;99.90;;;;;;10163561;28;82258;-74
2021/01/23 23:21:41;;;;;;;4.07;2.27;;;3.90;99.90;;;;;;10154989;28;82279;-74
2021/01/23 23:26:43;;;;;;;4.37;2.40;;;3.90;99.90;;;;;;10155334;28;84030;-73
2021/01/23 23:31:44;;;;;;;2.93;1.87;;;3.90;99.90;;;;;;10151812;28;83939;-73
2021/01/23 23:36:47;;;;;;;2.43;1.60;;;3.80;99.90;;;;;;10159024;28;82524;-73
2021/01/23 23:41:48;;;;;;;3.60;1.90;;;3.90;99.90;;;;;;10157383;28;82640;-73
2021/01/23 23:46:50;;;;;;;2.93;1.80;;;3.90;99.90;;;;;;10155076;28;83947;-74
2021/01/23 23:51:53;;;;;;;2.20;1.40;;;3.90;99.90;;;;;;10144382;28;85223;-73
2021/01/23 23:56:54;;;;;;;2.37;1.60;;;3.90;99.90;;;;;;10125190;28;84003;-73
